createdAt,value
2024-01-11T00:00:40.418Z,86.98
2024-01-11T00:01:40.420Z,86.98
2024-01-11T00:02:40.448Z,86.90
2024-01-11T00:03:40.347Z,85.21
2024-01-11T00:04:40.361Z,85.66
2024-01-11T00:05:40.395Z,85.77
2024-01-11T00:06:40.402Z,85.91
2024-01-11T00:07:40.320Z,85.85
2024-01-11T00:08:40.340Z,86.21
2024-01-11T00:09:40.320Z,88.15
2024-01-11T00:10:40.298Z,89.42
2024-01-11T00:11:40.447Z,89.40
2024-01-11T00:12:40.286Z,87.88
2024-01-11T00:13:40.278Z,86.34
2024-01-11T00:14:40.323Z,86.87
2024-01-11T00:15:40.351Z,87.54
2024-01-11T00:16:40.283Z,87.08
2024-01-11T00:17:40.346Z,85.96
2024-01-11T00:18:40.374Z,87.79
2024-01-11T00:19:40.230Z,88.98
2024-01-11T00:20:40.340Z,86.61
2024-01-11T00:21:41.977Z,85.66
2024-01-11T00:22:40.213Z,85.91
2024-01-11T00:23:40.255Z,85.89
2024-01-11T00:24:40.203Z,86.14
2024-01-11T00:25:40.215Z,88.29
2024-01-11T00:26:40.259Z,88.93
2024-01-11T00:27:40.169Z,89.50
2024-01-11T00:28:40.167Z,89.50
2024-01-11T00:29:40.222Z,90.39
2024-01-11T00:30:40.199Z,90.39
2024-01-11T00:31:40.147Z,90.92
2024-01-11T00:32:40.197Z,91.66
2024-01-11T00:33:40.228Z,91.77
2024-01-11T00:34:40.166Z,91.85
2024-01-11T00:35:40.259Z,92.17
2024-01-11T00:36:40.115Z,92.81
2024-01-11T00:37:40.125Z,93.30
2024-01-11T00:38:40.134Z,92.94
2024-01-11T00:39:40.109Z,92.79
2024-01-11T00:40:41.099Z,91.30
2024-01-11T00:41:40.131Z,90.88
2024-01-11T00:42:40.062Z,89.99
2024-01-11T00:43:40.064Z,89.99
2024-01-11T00:44:40.157Z,90.52
2024-01-11T00:45:40.039Z,90.16
2024-01-11T00:46:40.042Z,89.64
2024-01-11T00:47:40.171Z,88.68
2024-01-11T00:48:40.132Z,89.49
2024-01-11T00:49:40.128Z,88.75
2024-01-11T00:50:40.076Z,88.52
2024-01-11T00:51:40.007Z,87.04
2024-01-11T00:52:39.985Z,86.08
2024-01-11T00:53:40.060Z,84.14
2024-01-11T00:54:40.006Z,83.29
2024-01-11T00:55:39.969Z,82.94
2024-01-11T00:56:40.071Z,82.66
2024-01-11T00:57:39.966Z,81.43
2024-01-11T00:58:39.946Z,82.53
2024-01-11T00:59:39.993Z,83.34
2024-01-11T01:00:40.010Z,83.59
2024-01-11T01:01:39.929Z,83.62
2024-01-11T01:02:40.032Z,85.29
2024-01-11T01:03:39.962Z,86.84
2024-01-11T01:04:39.941Z,87.33
2024-01-11T01:05:40.043Z,87.01
2024-01-11T01:06:39.914Z,86.98
2024-01-11T01:07:39.880Z,85.52
2024-01-11T01:08:39.926Z,84.61
2024-01-11T01:09:39.871Z,84.05
2024-01-11T01:10:39.907Z,85.99
2024-01-11T01:11:39.887Z,86.63
2024-01-11T01:12:39.854Z,86.59
2024-01-11T01:13:39.877Z,86.63
2024-01-11T01:14:39.909Z,87.71
2024-01-11T01:15:39.835Z,85.91
2024-01-11T01:16:39.830Z,84.78
2024-01-11T01:17:39.940Z,83.94
2024-01-11T01:18:39.973Z,83.23
2024-01-11T01:19:39.836Z,84.29
2024-01-11T01:20:39.914Z,84.64
2024-01-11T01:21:39.789Z,83.69
2024-01-11T01:22:39.788Z,82.91
2024-01-11T01:23:39.857Z,82.53
2024-01-11T01:24:39.804Z,83.40
2024-01-11T01:25:39.788Z,83.20
2024-01-11T01:26:39.838Z,83.58
2024-01-11T01:27:39.782Z,82.45
2024-01-11T01:28:39.761Z,82.92
2024-01-11T01:29:39.792Z,84.75
2024-01-11T01:30:39.774Z,84.82
2024-01-11T01:31:39.721Z,84.42
2024-01-11T01:32:39.816Z,83.37
2024-01-11T01:33:39.885Z,83.47
2024-01-11T01:34:39.760Z,83.72
2024-01-11T01:35:39.778Z,82.06
2024-01-11T01:36:39.697Z,82.06
2024-01-11T01:37:39.706Z,82.77
2024-01-11T01:38:39.703Z,82.92
2024-01-11T01:39:39.669Z,83.69
2024-01-11T01:40:39.656Z,84.22
2024-01-11T01:41:39.737Z,84.44
2024-01-11T01:42:39.672Z,84.64
2024-01-11T01:43:39.629Z,84.79
2024-01-11T01:44:39.675Z,84.83
2024-01-11T01:45:39.638Z,86.21
2024-01-11T01:46:39.686Z,86.63
2024-01-11T01:47:39.692Z,86.10
2024-01-11T01:48:39.799Z,86.66
2024-01-11T01:49:39.634Z,85.93
2024-01-11T01:50:39.617Z,85.86
2024-01-11T01:51:39.615Z,85.89
2024-01-11T01:52:39.566Z,88.17
2024-01-11T01:53:39.680Z,89.12
2024-01-11T01:54:39.557Z,88.93
2024-01-11T01:55:39.573Z,88.47
2024-01-11T01:56:39.643Z,86.81
2024-01-11T01:57:39.525Z,87.49
2024-01-11T01:58:39.520Z,88.06
2024-01-11T01:59:39.667Z,88.37
2024-01-11T02:00:39.633Z,88.87
2024-01-11T02:01:39.529Z,88.65
2024-01-11T02:02:39.752Z,89.18
2024-01-11T02:03:39.778Z,88.51
2024-01-11T02:04:39.477Z,87.98
2024-01-11T02:05:39.561Z,87.81
2024-01-11T02:06:39.578Z,88.02
2024-01-11T02:07:39.455Z,88.44
2024-01-11T02:08:39.503Z,88.10
2024-01-11T02:09:39.465Z,89.40
2024-01-11T02:10:39.455Z,88.72
2024-01-11T02:11:39.465Z,88.57
2024-01-11T02:12:39.422Z,87.90
2024-01-11T02:13:39.414Z,86.66
2024-01-11T02:14:39.540Z,85.28
2024-01-11T02:15:39.407Z,84.33
2024-01-11T02:16:39.390Z,84.05
2024-01-11T02:17:39.554Z,84.61
2024-01-11T02:18:39.462Z,84.55
2024-01-11T02:19:39.419Z,86.07
2024-01-11T02:20:39.522Z,87.13
2024-01-11T02:21:39.374Z,87.66
2024-01-11T02:22:39.368Z,86.96
2024-01-11T02:23:40.994Z,88.15
2024-01-11T02:24:39.370Z,88.01
2024-01-11T02:25:39.348Z,86.21
2024-01-11T02:26:39.355Z,85.89
2024-01-11T02:27:39.331Z,84.97
2024-01-11T02:28:39.334Z,86.07
2024-01-11T02:29:39.402Z,86.04
2024-01-11T02:30:39.342Z,86.68
2024-01-11T02:31:39.363Z,88.80
2024-01-11T02:32:39.334Z,88.65
2024-01-11T02:33:39.396Z,88.34
2024-01-11T02:34:39.467Z,88.44
2024-01-11T02:35:39.934Z,88.09
2024-01-11T02:36:39.254Z,88.26
2024-01-11T02:37:39.252Z,86.52
2024-01-11T02:38:39.300Z,85.93
2024-01-11T02:39:39.232Z,86.07
2024-01-11T02:40:39.228Z,86.66
2024-01-11T02:41:39.330Z,86.24
2024-01-11T02:42:39.253Z,85.64
2024-01-11T02:43:39.228Z,84.29
2024-01-11T02:44:39.268Z,83.40
2024-01-11T02:45:39.188Z,81.75
2024-01-11T02:46:39.181Z,80.62
2024-01-11T02:47:39.367Z,82.78
2024-01-11T02:48:39.270Z,83.62
2024-01-11T02:49:39.161Z,84.36
2024-01-11T02:50:39.171Z,84.54
2024-01-11T02:51:39.142Z,83.41
2024-01-11T02:52:39.162Z,83.59
2024-01-11T02:53:39.279Z,83.62
2024-01-11T02:54:39.121Z,82.80
2024-01-11T02:55:39.147Z,81.32
2024-01-11T02:56:39.174Z,80.65
2024-01-11T02:57:39.123Z,79.81
2024-01-11T02:58:39.095Z,79.21
2024-01-11T02:59:39.130Z,78.79
2024-01-11T03:00:39.117Z,78.82
2024-01-11T03:01:39.092Z,78.93
2024-01-11T03:02:39.763Z,79.14
2024-01-11T03:03:39.098Z,78.22
2024-01-11T03:04:39.049Z,79.88
2024-01-11T03:05:39.093Z,80.73
2024-01-11T03:06:39.118Z,80.80
2024-01-11T03:07:39.035Z,80.44
2024-01-11T03:08:39.094Z,79.25
2024-01-11T03:09:39.018Z,78.02
2024-01-11T03:10:39.040Z,78.61
2024-01-11T03:11:39.111Z,79.96
2024-01-11T03:12:38.986Z,81.96
2024-01-11T03:13:38.994Z,82.77
2024-01-11T03:14:39.038Z,82.35
2024-01-11T03:15:38.999Z,80.66
2024-01-11T03:16:38.962Z,80.16
2024-01-11T03:17:39.092Z,80.80
2024-01-11T03:18:39.120Z,81.26
2024-01-11T03:19:38.937Z,80.69
2024-01-11T03:20:39.024Z,81.43
2024-01-11T03:21:38.927Z,81.54
2024-01-11T03:22:38.916Z,80.69
2024-01-11T03:23:38.941Z,81.43
2024-01-11T03:24:38.932Z,80.80
2024-01-11T03:25:38.935Z,80.87
2024-01-11T03:26:38.990Z,80.30
2024-01-11T03:27:38.881Z,79.46
2024-01-11T03:28:38.875Z,80.02
2024-01-11T03:29:38.935Z,80.76
2024-01-11T03:30:38.909Z,80.73
2024-01-11T03:31:38.858Z,80.80
2024-01-11T03:32:39.077Z,80.30
2024-01-11T03:33:39.005Z,81.97
2024-01-11T03:34:38.894Z,83.59
2024-01-11T03:35:38.935Z,84.01
2024-01-11T03:36:38.830Z,84.30
2024-01-11T03:37:38.812Z,84.01
2024-01-11T03:38:38.852Z,84.51
2024-01-11T03:39:38.814Z,84.26
2024-01-11T03:40:38.813Z,83.66
2024-01-11T03:41:38.893Z,84.83
2024-01-11T03:42:38.772Z,84.72
2024-01-11T03:43:38.801Z,84.66
2024-01-11T03:44:38.975Z,83.66
2024-01-11T03:45:38.783Z,83.74
2024-01-11T03:46:38.744Z,84.97
2024-01-11T03:47:38.937Z,84.48
2024-01-11T03:48:39.038Z,84.91
2024-01-11T03:49:38.723Z,86.15
2024-01-11T03:50:38.842Z,86.19
2024-01-11T03:51:38.712Z,88.10
2024-01-11T03:52:39.701Z,89.26
2024-01-11T03:53:39.269Z,89.37
2024-01-11T03:54:38.763Z,88.76
2024-01-11T03:55:38.764Z,88.55
2024-01-11T03:56:38.731Z,88.51
2024-01-11T03:57:38.725Z,86.49
2024-01-11T03:58:38.689Z,86.79
2024-01-11T03:59:38.735Z,87.04
2024-01-11T04:00:38.686Z,88.73
2024-01-11T04:01:38.636Z,89.56
2024-01-11T04:02:38.709Z,90.13
2024-01-11T04:03:38.658Z,91.41
2024-01-11T04:04:38.616Z,91.34
2024-01-11T04:05:38.664Z,93.29
2024-01-11T04:06:38.687Z,93.29
2024-01-11T04:07:38.622Z,93.76
2024-01-11T04:08:38.723Z,94.61
2024-01-11T04:09:38.586Z,94.29
2024-01-11T04:10:38.577Z,94.78
2024-01-11T04:11:38.643Z,95.10
2024-01-11T04:12:38.626Z,94.53
2024-01-11T04:13:38.558Z,94.45
2024-01-11T04:14:38.592Z,93.80
2024-01-11T04:15:38.568Z,92.17
2024-01-11T04:16:38.567Z,92.00
2024-01-11T04:17:38.761Z,91.61
2024-01-11T04:18:38.734Z,92.47
2024-01-11T04:19:38.529Z,92.89
2024-01-11T04:20:38.536Z,93.76
2024-01-11T04:21:38.531Z,92.49
2024-01-11T04:22:38.508Z,91.05
2024-01-11T04:23:38.761Z,91.49
2024-01-11T04:24:38.509Z,90.56
2024-01-11T04:25:38.500Z,88.55
2024-01-11T04:26:38.612Z,88.23
2024-01-11T04:27:38.479Z,89.29
2024-01-11T04:28:38.492Z,88.09
2024-01-11T04:29:38.571Z,88.15
2024-01-11T04:30:38.549Z,86.10
2024-01-11T04:31:38.524Z,84.97
2024-01-11T04:32:38.553Z,85.75
2024-01-11T04:33:38.621Z,85.09
2024-01-11T04:34:38.617Z,86.08
2024-01-11T04:35:38.691Z,87.92
2024-01-11T04:36:38.497Z,88.20
2024-01-11T04:37:38.385Z,88.90
2024-01-11T04:38:38.515Z,89.01
2024-01-11T04:39:38.398Z,87.66
2024-01-11T04:40:38.385Z,85.08
2024-01-11T04:41:38.528Z,83.91
2024-01-11T04:42:38.348Z,84.34
2024-01-11T04:43:38.343Z,84.66
2024-01-11T04:44:38.446Z,84.51
2024-01-11T04:45:38.344Z,83.49
2024-01-11T04:46:38.329Z,84.55
2024-01-11T04:47:38.453Z,83.28
2024-01-11T04:48:38.341Z,83.42
2024-01-11T04:49:38.328Z,83.78
2024-01-11T04:50:38.330Z,83.81
2024-01-11T04:51:38.280Z,86.04
2024-01-11T04:52:38.315Z,86.21
2024-01-11T04:53:38.306Z,86.32
2024-01-11T04:54:38.289Z,85.89
2024-01-11T04:55:38.253Z,85.86
2024-01-11T04:56:38.310Z,85.29
2024-01-11T04:57:38.252Z,83.10
2024-01-11T04:58:38.281Z,84.20
2024-01-11T04:59:38.364Z,84.94
2024-01-11T05:00:38.246Z,86.11
2024-01-11T05:01:38.242Z,85.16
2024-01-11T05:02:38.331Z,84.63
2024-01-11T05:03:38.285Z,85.11
2024-01-11T05:04:38.232Z,83.70
2024-01-11T05:05:38.255Z,83.00
2024-01-11T05:06:38.212Z,83.88
2024-01-11T05:07:38.177Z,83.99
2024-01-11T05:08:38.229Z,83.25
2024-01-11T05:09:38.161Z,84.84
2024-01-11T05:10:38.149Z,84.98
2024-01-11T05:13:12.218Z,83.56
2024-01-11T05:14:12.268Z,83.21
2024-01-11T05:15:12.220Z,83.17
2024-01-11T05:16:12.205Z,82.11
2024-01-11T05:17:12.223Z,81.73
2024-01-11T05:18:12.386Z,82.86
2024-01-11T05:19:12.294Z,81.79
2024-01-11T05:20:12.332Z,81.51
2024-01-11T05:21:12.173Z,82.01
2024-01-11T05:22:12.175Z,83.11
2024-01-11T05:23:12.228Z,83.92
2024-01-11T05:24:12.462Z,86.08
2024-01-11T05:25:12.151Z,86.25
2024-01-11T05:26:12.175Z,84.91
2024-01-11T05:27:12.156Z,83.53
2024-01-11T05:28:12.146Z,83.17
2024-01-11T05:29:12.137Z,81.65
2024-01-11T05:30:12.210Z,81.16
2024-01-11T05:31:12.217Z,80.80
2024-01-11T05:32:12.210Z,82.82
2024-01-11T05:33:12.210Z,83.56
2024-01-11T05:34:13.392Z,82.29
2024-01-11T05:35:13.240Z,82.57
2024-01-11T05:36:13.206Z,83.11
2024-01-11T05:37:13.209Z,84.31
2024-01-11T05:38:14.232Z,84.48
2024-01-11T05:39:13.190Z,84.77
2024-01-11T05:40:13.183Z,83.53
2024-01-11T05:41:13.214Z,82.32
2024-01-11T05:42:13.194Z,82.32
2024-01-11T05:43:13.169Z,82.29
2024-01-11T05:44:13.228Z,81.58
2024-01-11T05:45:13.157Z,80.49
2024-01-11T05:46:14.174Z,80.66
2024-01-11T05:47:13.185Z,81.90
2024-01-11T05:48:13.224Z,80.87
2024-01-11T05:49:13.152Z,80.10
2024-01-11T05:50:13.175Z,80.56
2024-01-11T05:51:14.137Z,81.62
2024-01-11T05:52:13.109Z,81.93
2024-01-11T05:53:13.095Z,82.39
2024-01-11T05:54:13.099Z,81.19
2024-01-11T05:55:13.084Z,79.57
2024-01-11T05:56:13.151Z,79.25
2024-01-11T05:57:13.079Z,78.86
2024-01-11T05:58:13.079Z,78.44
2024-01-11T05:59:13.141Z,80.07
2024-01-11T06:00:13.151Z,82.22
2024-01-11T06:01:13.082Z,83.67
2024-01-11T06:02:13.162Z,82.86
2024-01-11T06:03:13.047Z,83.14
2024-01-11T06:04:13.006Z,83.53
2024-01-11T06:05:14.093Z,82.39
2024-01-11T06:06:13.290Z,80.91
2024-01-11T06:07:13.017Z,80.69
2024-01-11T06:08:13.015Z,80.98
2024-01-11T06:09:12.982Z,81.69
2024-01-11T06:10:12.996Z,81.65
2024-01-11T06:11:13.108Z,80.63
2024-01-11T06:12:12.957Z,80.60
2024-01-11T06:13:12.956Z,81.05
2024-01-11T06:14:12.985Z,82.51
2024-01-11T06:15:12.966Z,83.75
2024-01-11T06:16:13.647Z,84.63
2024-01-11T06:17:13.976Z,83.78
2024-01-11T06:18:13.075Z,82.93
2024-01-11T06:19:13.057Z,82.22
2024-01-11T06:20:12.974Z,82.97
2024-01-11T06:21:12.912Z,82.93
2024-01-11T06:22:12.902Z,82.71
2024-01-11T06:23:12.951Z,82.46
2024-01-11T06:24:12.928Z,81.97
2024-01-11T06:25:12.869Z,82.08
2024-01-11T06:26:12.882Z,81.59
2024-01-11T06:27:13.852Z,82.40
2024-01-11T06:28:12.850Z,83.85
2024-01-11T06:29:12.887Z,84.84
2024-01-11T06:30:12.985Z,84.66
2024-01-11T06:31:12.881Z,84.73
2024-01-11T06:32:12.868Z,83.56
2024-01-11T06:33:12.934Z,82.71
2024-01-11T06:34:12.900Z,80.98
2024-01-11T06:35:12.846Z,79.74
2024-01-11T06:36:12.778Z,80.80
2024-01-11T06:37:12.822Z,81.23
2024-01-11T06:38:12.854Z,81.84
2024-01-11T06:39:12.763Z,83.82
2024-01-11T06:40:12.758Z,85.16
2024-01-11T06:41:12.796Z,84.77
2024-01-11T06:42:12.766Z,83.78
2024-01-11T06:43:12.887Z,83.71
2024-01-11T06:44:12.907Z,83.50
2024-01-11T06:45:12.735Z,83.71
2024-01-11T06:46:12.711Z,83.00
2024-01-11T06:47:12.801Z,82.86
2024-01-11T06:48:13.016Z,82.25
2024-01-11T06:49:12.904Z,82.36
2024-01-11T06:50:12.777Z,82.32
2024-01-11T06:51:12.690Z,81.54
2024-01-11T06:52:12.699Z,80.45
2024-01-11T06:53:12.727Z,79.64
2024-01-11T06:54:12.701Z,79.88
2024-01-11T06:55:12.731Z,80.66
2024-01-11T06:56:12.767Z,81.55
2024-01-11T06:57:12.740Z,81.69
2024-01-11T06:58:12.712Z,83.00
2024-01-11T06:59:12.746Z,84.00
2024-01-11T07:00:12.673Z,85.02
2024-01-11T07:01:12.725Z,84.84
2024-01-11T07:02:12.716Z,82.57
2024-01-11T07:03:12.697Z,81.79
2024-01-11T07:04:12.792Z,81.73
2024-01-11T07:05:12.710Z,81.69
2024-01-11T07:06:12.756Z,82.75
2024-01-11T07:07:12.565Z,83.07
2024-01-11T07:08:12.585Z,82.61
2024-01-11T07:09:12.557Z,83.42
2024-01-11T07:10:12.564Z,81.93
2024-01-11T07:11:12.690Z,82.29
2024-01-11T07:12:13.539Z,82.68
2024-01-11T07:13:12.528Z,82.25
2024-01-11T07:14:12.581Z,82.32
2024-01-11T07:15:12.578Z,81.72
2024-01-11T07:16:16.125Z,79.74
2024-01-11T07:17:13.519Z,78.58
2024-01-11T07:18:12.588Z,77.62
2024-01-11T07:19:12.532Z,77.98
2024-01-11T07:20:12.645Z,78.58
2024-01-11T07:21:12.482Z,79.36
2024-01-11T07:22:12.451Z,81.30
2024-01-11T07:23:12.470Z,81.37
2024-01-11T07:24:12.444Z,80.87
2024-01-11T07:25:12.445Z,79.39
2024-01-11T07:26:13.476Z,79.11
2024-01-11T07:27:12.423Z,80.27
2024-01-11T07:28:12.418Z,80.06
2024-01-11T07:29:12.467Z,79.60
2024-01-11T07:30:12.488Z,80.38
2024-01-11T07:31:12.396Z,82.01
2024-01-11T07:32:12.450Z,83.43
2024-01-11T07:33:12.525Z,84.09
2024-01-11T07:34:12.507Z,84.27
2024-01-11T07:35:15.215Z,83.74
2024-01-11T07:36:13.388Z,83.17
2024-01-11T07:37:12.399Z,82.29
2024-01-11T07:38:12.374Z,81.09
2024-01-11T07:39:13.380Z,80.66
2024-01-11T07:40:12.403Z,80.10
2024-01-11T07:41:12.356Z,79.35
2024-01-11T07:42:12.322Z,79.39
2024-01-11T07:43:12.349Z,79.21
2024-01-11T07:44:12.365Z,79.85
2024-01-11T07:45:12.296Z,82.01
2024-01-11T07:46:12.293Z,82.93
2024-01-11T07:47:12.301Z,84.56
2024-01-11T07:48:12.377Z,84.13
2024-01-11T07:49:12.371Z,83.07
2024-01-11T07:50:12.326Z,83.78
2024-01-11T07:51:12.257Z,83.38
2024-01-11T07:52:12.258Z,82.07
2024-01-11T07:53:12.346Z,80.34
2024-01-11T07:54:12.243Z,81.30
2024-01-11T07:55:12.243Z,79.99
2024-01-11T07:56:12.248Z,80.10
2024-01-11T07:57:12.210Z,80.27
2024-01-11T07:58:12.223Z,79.57
2024-01-11T07:59:12.216Z,78.26
2024-01-11T08:00:12.207Z,78.26
2024-01-11T08:01:12.202Z,78.83
2024-01-11T08:02:12.225Z,79.49
2024-01-11T08:03:12.428Z,80.48
2024-01-11T08:04:12.187Z,80.76
2024-01-11T08:05:12.257Z,81.46
2024-01-11T08:06:13.343Z,81.04
2024-01-11T08:07:12.212Z,80.13
2024-01-11T08:08:12.160Z,78.30
2024-01-11T08:09:13.148Z,77.91
2024-01-11T08:10:12.130Z,77.24
2024-01-11T08:11:12.133Z,76.19
2024-01-11T08:12:12.201Z,76.29
2024-01-11T08:13:12.093Z,76.43
2024-01-11T08:14:12.134Z,76.54
2024-01-11T08:15:12.073Z,76.92
2024-01-11T08:16:12.072Z,77.20
2024-01-11T08:17:12.134Z,75.59
2024-01-11T08:18:12.088Z,75.07
2024-01-11T08:19:12.197Z,75.45
2024-01-11T08:20:12.094Z,74.33
2024-01-11T08:21:12.035Z,73.46
2024-01-11T08:22:12.046Z,72.20
2024-01-11T08:23:12.038Z,71.95
2024-01-11T08:24:12.018Z,71.61
2024-01-11T08:25:12.006Z,71.15
2024-01-11T08:26:12.114Z,70.73
2024-01-11T08:27:11.993Z,70.24
2024-01-11T08:28:12.095Z,70.63
2024-01-11T08:29:12.027Z,71.01
2024-01-11T08:30:12.002Z,71.04
2024-01-11T08:31:12.097Z,71.56
2024-01-11T08:32:19.878Z,72.09
2024-01-11T08:33:14.024Z,72.62
2024-01-11T08:34:12.065Z,73.60
2024-01-11T08:35:12.163Z,73.67
2024-01-11T08:36:12.016Z,74.19
2024-01-11T08:37:11.911Z,73.25
2024-01-11T08:38:12.256Z,73.14
2024-01-11T08:39:11.891Z,72.83
2024-01-11T08:40:11.925Z,73.18
2024-01-11T08:41:11.950Z,73.60
2024-01-11T08:42:11.873Z,73.52
2024-01-11T08:43:11.863Z,73.94
2024-01-11T08:44:11.860Z,73.88
2024-01-11T08:45:11.872Z,73.94
2024-01-11T08:46:11.860Z,75.21
2024-01-11T08:47:11.855Z,75.52
2024-01-11T08:48:11.954Z,76.01
2024-01-11T08:49:11.869Z,75.91
2024-01-11T08:50:11.883Z,75.77
2024-01-11T08:51:11.804Z,75.52
2024-01-11T08:52:11.796Z,74.89
2024-01-11T08:53:11.870Z,75.56
2024-01-11T08:54:11.814Z,76.15
2024-01-11T08:55:11.793Z,77.03
2024-01-11T08:56:11.768Z,75.70
2024-01-11T08:57:11.758Z,74.76
2024-01-11T08:58:11.753Z,73.91
2024-01-11T08:59:11.812Z,73.84
2024-01-11T09:00:11.730Z,75.24
2024-01-11T09:01:11.736Z,75.87
2024-01-11T09:02:15.798Z,75.63
2024-01-11T09:03:13.331Z,75.42
2024-01-11T09:04:11.878Z,75.49
2024-01-11T09:05:11.764Z,74.79
2024-01-11T09:06:11.771Z,75.38
2024-01-11T09:07:11.685Z,75.07
2024-01-11T09:08:11.724Z,75.07
2024-01-11T09:09:11.685Z,74.86
2024-01-11T09:10:11.655Z,74.68
2024-01-11T09:11:11.767Z,73.81
2024-01-11T09:12:11.653Z,73.36
2024-01-11T09:13:13.217Z,73.57
2024-01-11T09:14:11.663Z,73.28
2024-01-11T09:15:11.630Z,73.78
2024-01-11T09:16:11.617Z,73.78
2024-01-11T09:17:11.645Z,73.15
2024-01-11T09:18:11.879Z,72.41
2024-01-11T09:19:11.642Z,73.50
2024-01-11T09:20:11.645Z,73.77
2024-01-11T09:21:11.574Z,74.93
2024-01-11T09:22:11.881Z,75.35
2024-01-11T09:23:11.655Z,75.28
2024-01-11T09:24:11.569Z,74.93
2024-01-11T09:25:11.540Z,74.20
2024-01-11T09:26:11.586Z,73.85
2024-01-11T09:27:11.557Z,72.14
2024-01-11T09:28:11.545Z,72.24
2024-01-11T09:29:11.534Z,72.14
2024-01-11T09:30:11.561Z,72.63
2024-01-11T09:31:11.529Z,73.88
2024-01-11T09:32:11.575Z,74.79
2024-01-11T09:33:11.597Z,74.65
2024-01-11T09:34:11.573Z,75.18
2024-01-11T09:35:13.908Z,74.51
2024-01-11T09:36:12.463Z,74.93
2024-01-11T09:37:11.483Z,75.11
2024-01-11T09:38:11.490Z,73.92
2024-01-11T09:39:11.584Z,74.48
2024-01-11T09:40:11.422Z,76.43
2024-01-11T09:41:14.103Z,77.76
2024-01-11T09:42:11.840Z,78.54
2024-01-11T09:43:11.415Z,79.63
2024-01-11T09:44:11.429Z,81.56
2024-01-11T09:45:11.406Z,81.56
2024-01-11T09:46:11.408Z,83.18
2024-01-11T09:47:12.626Z,83.07
2024-01-11T09:48:12.600Z,82.62
2024-01-11T09:49:11.414Z,82.76
2024-01-11T09:50:11.403Z,83.11
2024-01-11T09:51:11.365Z,83.64
2024-01-11T09:52:11.345Z,84.59
2024-01-11T09:53:11.368Z,83.75
2024-01-11T09:54:11.322Z,85.47
2024-01-11T09:55:11.310Z,84.69
2024-01-11T09:56:11.490Z,84.34
2024-01-11T09:57:11.306Z,83.60
2024-01-11T09:58:11.286Z,83.42
2024-01-11T09:59:11.878Z,82.79
2024-01-11T10:00:11.301Z,81.59
2024-01-11T10:01:11.337Z,81.13
2024-01-11T10:02:11.376Z,81.38
2024-01-11T10:03:11.253Z,81.62
2024-01-11T10:04:11.312Z,80.96
2024-01-11T10:05:11.818Z,82.23
2024-01-11T10:06:11.253Z,81.91
2024-01-11T10:07:11.310Z,81.98
2024-01-11T10:08:11.229Z,82.75
2024-01-11T10:09:11.221Z,82.19
2024-01-11T10:10:11.242Z,81.59
2024-01-11T10:11:11.223Z,83.21
2024-01-11T10:12:11.183Z,82.68
2024-01-11T10:13:11.177Z,83.42
2024-01-11T10:14:11.227Z,84.20
2024-01-11T10:15:11.444Z,84.16
2024-01-11T10:16:11.167Z,84.27
2024-01-11T10:17:14.948Z,83.11
2024-01-11T10:18:13.371Z,83.53
2024-01-11T10:19:11.299Z,84.47
2024-01-11T10:20:11.290Z,84.16
2024-01-11T10:21:11.198Z,84.27
2024-01-11T10:22:11.111Z,84.47
2024-01-11T10:23:11.165Z,83.95
2024-01-11T10:24:11.120Z,83.95
2024-01-11T10:25:11.086Z,85.11
2024-01-11T10:26:11.174Z,85.28
2024-01-11T10:27:11.078Z,83.91
2024-01-11T10:28:11.092Z,84.47
2024-01-11T10:29:11.231Z,85.49
2024-01-11T10:30:11.086Z,84.61
2024-01-11T10:31:11.057Z,84.65
2024-01-11T10:32:11.126Z,85.63
2024-01-11T10:33:11.283Z,86.05
2024-01-11T10:34:11.107Z,86.87
2024-01-11T10:35:11.148Z,88.03
2024-01-11T10:36:11.142Z,88.24
2024-01-11T10:37:11.004Z,88.49
2024-01-11T10:38:11.041Z,88.28
2024-01-11T10:39:10.999Z,88.49
2024-01-11T10:40:10.971Z,88.49
2024-01-11T10:41:11.020Z,88.49
2024-01-11T10:42:10.990Z,88.24
2024-01-11T10:43:10.992Z,87.57
2024-01-11T10:44:10.993Z,86.72
2024-01-11T10:45:10.941Z,87.25
2024-01-11T10:46:10.979Z,86.62
2024-01-11T10:47:10.971Z,86.69
2024-01-11T10:48:11.019Z,86.58
2024-01-11T10:49:10.951Z,86.02
2024-01-11T10:50:10.978Z,86.58
2024-01-11T10:51:10.894Z,86.76
2024-01-11T10:52:10.920Z,85.77
2024-01-11T10:53:10.920Z,85.35
2024-01-11T10:54:10.871Z,85.31
2024-01-11T10:55:10.886Z,84.67
2024-01-11T10:56:11.005Z,84.36
2024-01-11T10:57:10.870Z,85.52
2024-01-11T10:58:10.840Z,85.45
2024-01-11T10:59:10.858Z,85.97
2024-01-11T11:00:10.822Z,85.45
2024-01-11T11:01:10.863Z,86.19
2024-01-11T11:02:10.897Z,86.36
2024-01-11T11:03:10.922Z,85.80
2024-01-11T11:04:10.798Z,86.02
2024-01-11T11:05:10.876Z,85.80
2024-01-11T11:06:10.903Z,85.97
2024-01-11T11:07:10.806Z,85.35
2024-01-11T11:08:10.793Z,85.35
2024-01-11T11:09:10.771Z,85.97
2024-01-11T11:10:10.799Z,86.29
2024-01-11T11:11:10.795Z,86.19
2024-01-11T11:12:43.388Z,86.04
2024-01-11T11:13:10.727Z,86.25
2024-01-11T11:14:10.754Z,85.62
2024-01-11T11:15:10.733Z,84.99
2024-01-11T11:16:10.715Z,85.94
2024-01-11T11:17:10.728Z,85.83
2024-01-11T11:18:10.705Z,85.94
2024-01-11T11:19:10.734Z,85.31
2024-01-11T11:20:10.727Z,86.15
2024-01-11T11:21:10.665Z,85.94
2024-01-11T11:22:10.679Z,86.57
2024-01-11T11:23:10.690Z,87.20
2024-01-11T11:24:10.666Z,87.20
2024-01-11T11:25:10.655Z,86.25
2024-01-11T11:26:10.804Z,86.57
2024-01-11T11:27:10.620Z,86.15
2024-01-11T11:28:10.608Z,85.83
2024-01-11T11:29:10.658Z,86.57
2024-01-11T11:30:10.610Z,86.21
2024-01-11T11:31:10.587Z,86.46
2024-01-11T11:32:10.606Z,86.46
2024-01-11T11:33:10.675Z,86.43
2024-01-11T11:34:10.639Z,86.00
2024-01-11T11:35:10.575Z,85.86
2024-01-11T11:36:10.555Z,85.96
2024-01-11T11:37:10.541Z,85.55
2024-01-11T11:38:10.693Z,85.23
2024-01-11T11:39:10.571Z,84.60
2024-01-11T11:40:10.532Z,85.44
2024-01-11T11:41:10.525Z,84.49
2024-01-11T11:42:10.517Z,85.50
2024-01-11T11:43:10.532Z,83.93
2024-01-11T11:44:10.509Z,84.45
2024-01-11T11:45:10.497Z,83.93
2024-01-11T11:46:10.564Z,84.25
2024-01-11T11:47:10.510Z,83.40
2024-01-11T11:48:10.591Z,82.84
2024-01-11T11:49:10.489Z,83.47
2024-01-11T11:50:10.548Z,83.79
2024-01-11T11:51:10.478Z,82.95
2024-01-11T11:52:10.475Z,82.17
2024-01-11T11:53:10.487Z,82.66
2024-01-11T11:54:10.422Z,82.62
2024-01-11T11:55:10.420Z,82.17
2024-01-11T11:56:10.443Z,81.12
2024-01-11T11:57:10.436Z,81.40
2024-01-11T11:58:10.403Z,80.98
2024-01-11T11:59:10.409Z,80.35
2024-01-11T12:00:10.389Z,80.91
2024-01-11T12:01:10.392Z,82.20
2024-01-11T12:02:10.423Z,81.37
2024-01-11T12:03:10.361Z,82.42
2024-01-11T12:04:10.362Z,82.42
2024-01-11T12:05:10.476Z,82.20
2024-01-11T12:06:10.569Z,82.83
2024-01-11T12:07:10.413Z,82.73
2024-01-11T12:08:10.348Z,82.62
2024-01-11T12:09:10.314Z,81.75
2024-01-11T12:10:10.299Z,82.42
2024-01-11T12:11:10.339Z,82.20
2024-01-11T12:12:15.645Z,82.52
2024-01-11T12:13:12.310Z,82.20
2024-01-11T12:14:10.309Z,81.37
2024-01-11T12:15:10.264Z,82.62
2024-01-11T12:16:10.304Z,82.83
2024-01-11T12:17:10.277Z,82.52
2024-01-11T12:18:10.350Z,82.17
2024-01-11T12:19:10.380Z,82.38
2024-01-11T12:20:10.270Z,81.96
2024-01-11T12:21:10.257Z,82.03
2024-01-11T12:22:10.221Z,81.71
2024-01-11T12:23:10.220Z,81.08
2024-01-11T12:24:10.198Z,80.63
2024-01-11T12:25:10.232Z,80.73
2024-01-11T12:26:10.229Z,80.80
2024-01-11T12:27:10.179Z,79.64
2024-01-11T12:28:10.194Z,79.09
2024-01-11T12:29:10.247Z,79.09
2024-01-11T12:30:10.295Z,79.58
2024-01-11T12:31:10.148Z,78.88
2024-01-11T12:32:10.156Z,78.88
2024-01-11T12:33:10.238Z,78.77
2024-01-11T12:34:10.224Z,78.77
2024-01-11T12:35:10.215Z,77.80
2024-01-11T12:36:10.143Z,78.85
2024-01-11T12:37:10.122Z,79.05
2024-01-11T12:38:10.129Z,78.42
2024-01-11T12:39:10.115Z,78.91
2024-01-11T12:40:10.121Z,77.34
2024-01-11T12:41:10.121Z,78.08
2024-01-11T12:42:10.073Z,77.55
2024-01-11T12:43:10.063Z,78.18
2024-01-11T12:44:10.069Z,78.39
2024-01-11T12:45:10.072Z,78.39
2024-01-11T12:46:10.041Z,77.80
2024-01-11T12:47:10.098Z,76.44
2024-01-11T12:48:10.316Z,76.51
2024-01-11T12:49:10.162Z,76.26
2024-01-11T12:50:10.072Z,76.20
2024-01-11T12:51:17.114Z,76.40
2024-01-11T12:52:12.008Z,76.09
2024-01-11T12:53:10.036Z,76.44
2024-01-11T12:54:10.008Z,76.86